createdAt,value
2023-03-08T00:01:54.440Z,0.95
2023-03-08T00:04:25.382Z,0.94
2023-03-08T00:06:55.398Z,0.93
2023-03-08T00:09:26.173Z,0.91
2023-03-08T00:11:56.174Z,0.90
2023-03-08T00:14:26.737Z,0.85
2023-03-08T00:16:58.573Z,0.83
2023-03-08T00:19:28.271Z,0.80
2023-03-08T00:21:57.126Z,0.77
2023-03-08T00:24:27.929Z,0.76
2023-03-08T00:26:59.077Z,0.74
2023-03-08T00:29:27.921Z,0.71
2023-03-08T00:31:59.019Z,0.71
2023-03-08T00:34:28.119Z,0.70
2023-03-08T00:36:59.849Z,0.69
2023-03-08T00:39:29.697Z,0.70
2023-03-08T00:42:00.843Z,0.69
2023-03-08T00:44:31.690Z,0.68
2023-03-08T00:47:00.573Z,0.67
2023-03-08T00:49:30.245Z,0.62
2023-03-08T00:52:00.317Z,0.61
2023-03-08T00:54:30.818Z,0.63
2023-03-08T00:57:00.430Z,0.70
2023-03-08T00:59:31.173Z,0.75
2023-03-08T01:02:01.494Z,0.77
2023-03-08T01:04:34.407Z,0.80
2023-03-08T01:07:04.523Z,0.84
2023-03-08T01:09:35.583Z,0.85
2023-03-08T01:12:06.087Z,0.87
2023-03-08T01:14:37.752Z,0.87
2023-03-08T01:17:07.778Z,0.89
2023-03-08T01:19:39.135Z,0.95
2023-03-08T01:22:08.864Z,1.04
2023-03-08T01:24:38.357Z,1.11
2023-03-08T01:27:09.500Z,1.18
2023-03-08T01:29:38.730Z,1.26
2023-03-08T01:32:09.914Z,1.31
2023-03-08T01:34:42.494Z,1.34
2023-03-08T01:37:11.318Z,1.38
2023-03-08T01:39:40.469Z,1.42
2023-03-08T01:42:09.947Z,1.44
2023-03-08T01:44:57.499Z,1.46
2023-03-08T01:47:29.370Z,1.46
2023-03-08T01:50:07.968Z,1.47
2023-03-08T01:52:43.164Z,1.48
2023-03-08T01:55:14.804Z,1.50
2023-03-08T01:57:55.805Z,1.52
2023-03-08T02:00:28.035Z,1.54
2023-03-08T02:03:07.406Z,1.54
2023-03-08T02:05:39.518Z,1.54
2023-03-08T02:08:10.465Z,1.57
2023-03-08T02:10:42.481Z,1.57
2023-03-08T02:13:12.957Z,1.55
2023-03-08T02:15:46.568Z,1.55
2023-03-08T02:18:17.746Z,1.57
2023-03-08T02:20:48.770Z,1.57
2023-03-08T02:23:24.702Z,1.61
2023-03-08T02:26:03.779Z,1.62
2023-03-08T02:28:35.434Z,1.57
2023-03-08T02:31:04.878Z,1.55
2023-03-08T02:33:35.259Z,1.56
2023-03-08T02:36:05.362Z,1.58
2023-03-08T02:38:35.630Z,1.58
2023-03-08T02:41:05.013Z,1.61
2023-03-08T02:43:33.788Z,1.61
2023-03-08T02:46:02.901Z,1.61
2023-03-08T02:48:34.558Z,1.59
2023-03-08T02:51:03.336Z,1.59
2023-03-08T02:53:34.469Z,1.62
2023-03-08T02:56:04.608Z,1.61
2023-03-08T02:58:35.802Z,1.61
2023-03-08T03:01:13.062Z,1.59
2023-03-08T03:03:43.314Z,1.62
2023-03-08T03:06:19.148Z,1.62
2023-03-08T03:08:51.123Z,1.64
2023-03-08T03:11:23.054Z,1.69
2023-03-08T03:13:59.492Z,1.76
2023-03-08T03:16:31.257Z,1.80
2023-03-08T03:19:00.598Z,1.84
2023-03-08T03:21:32.147Z,1.89
2023-03-08T03:24:02.455Z,1.94
2023-03-08T03:26:39.137Z,1.98
2023-03-08T03:29:08.488Z,2.01
2023-03-08T03:31:39.557Z,2.05
2023-03-08T03:34:08.880Z,2.08
2023-03-08T03:36:40.693Z,2.12
2023-03-08T03:39:09.703Z,2.16
2023-03-08T03:41:40.032Z,2.19
2023-03-08T03:44:11.199Z,2.20
2023-03-08T03:46:41.859Z,2.22
2023-03-08T03:49:11.735Z,2.25
2023-03-08T03:51:42.400Z,2.26
2023-03-08T03:54:13.583Z,2.29
2023-03-08T03:56:43.764Z,2.30
2023-03-08T03:59:12.704Z,2.31
2023-03-08T04:01:43.566Z,2.33
2023-03-08T04:04:18.162Z,2.34
2023-03-08T04:06:48.353Z,2.37
2023-03-08T04:09:19.974Z,2.37
2023-03-08T04:11:51.062Z,2.38
2023-03-08T04:14:23.022Z,2.39
2023-03-08T04:16:52.634Z,2.37
2023-03-08T04:19:26.753Z,2.38
2023-03-08T04:21:57.822Z,2.38
2023-03-08T04:24:29.762Z,2.37
2023-03-08T04:27:01.002Z,2.36
2023-03-08T04:29:32.153Z,2.36
2023-03-08T04:32:01.568Z,2.39
2023-03-08T04:34:33.892Z,2.38
2023-03-08T04:37:05.348Z,2.37
2023-03-08T04:39:37.996Z,2.36
2023-03-08T04:42:07.392Z,2.34
2023-03-08T04:44:38.401Z,2.36
2023-03-08T04:47:09.795Z,2.40
2023-03-08T04:49:47.089Z,2.38
2023-03-08T04:52:15.965Z,2.38
2023-03-08T04:54:45.550Z,2.38
2023-03-08T04:57:23.713Z,2.37
2023-03-08T05:00:01.045Z,2.37
2023-03-08T05:02:34.338Z,2.39
2023-03-08T05:05:05.288Z,2.40
2023-03-08T05:07:35.931Z,2.42
2023-03-08T05:10:06.410Z,2.43
2023-03-08T05:12:36.480Z,2.45
2023-03-08T05:15:07.485Z,2.46
2023-03-08T05:17:38.494Z,2.47
2023-03-08T05:20:10.772Z,2.50
2023-03-08T05:22:57.214Z,2.53
2023-03-08T05:25:14.095Z,2.56
2023-03-08T05:27:48.508Z,2.58
2023-03-08T05:30:19.503Z,2.59
2023-03-08T05:32:49.488Z,2.60
2023-03-08T05:35:19.011Z,2.63
2023-03-08T05:37:48.553Z,2.67
2023-03-08T05:40:20.326Z,2.68
2023-03-08T05:42:49.754Z,2.72
2023-03-08T05:45:20.289Z,2.75
2023-03-08T05:47:50.798Z,2.78
2023-03-08T05:50:20.958Z,2.82
2023-03-08T05:52:52.172Z,2.86
2023-03-08T05:55:24.417Z,2.90
2023-03-08T05:57:55.804Z,2.92
2023-03-08T06:00:28.197Z,2.97
2023-03-08T06:03:04.189Z,3.00
2023-03-08T06:05:38.351Z,3.01
2023-03-08T06:08:10.716Z,3.03
2023-03-08T06:10:40.394Z,3.05
2023-03-08T06:13:11.232Z,3.07
2023-03-08T06:15:40.068Z,3.10
2023-03-08T06:18:10.274Z,3.13
2023-03-08T06:20:41.426Z,3.15
2023-03-08T06:23:11.959Z,3.18
2023-03-08T06:25:44.380Z,3.20
2023-03-08T06:28:17.019Z,3.25
2023-03-08T06:30:52.156Z,3.30
2023-03-08T06:33:25.792Z,3.33
2023-03-08T06:36:08.140Z,3.38
2023-03-08T06:38:41.387Z,3.44
2023-03-08T06:41:12.567Z,3.50
2023-03-08T06:43:43.626Z,3.54
2023-03-08T06:46:17.007Z,3.59
2023-03-08T06:48:47.566Z,3.66
2023-03-08T06:51:30.135Z,3.71
2023-03-08T06:54:07.896Z,3.77
2023-03-08T06:56:43.762Z,3.82
2023-03-08T06:59:15.138Z,3.89
2023-03-08T07:01:45.377Z,3.97
2023-03-08T07:04:21.749Z,4.05
2023-03-08T07:06:52.208Z,4.14
2023-03-08T07:09:22.176Z,4.24
2023-03-08T07:11:52.244Z,4.35
2023-03-08T07:14:22.119Z,4.46
2023-03-08T07:16:53.006Z,4.56
2023-03-08T07:19:22.148Z,4.65
2023-03-08T07:21:56.614Z,4.74
2023-03-08T07:24:28.886Z,4.83
2023-03-08T07:27:02.814Z,4.93
2023-03-08T07:29:34.194Z,5.01
2023-03-08T07:32:09.230Z,5.08
2023-03-08T07:34:39.674Z,5.15
2023-03-08T07:37:13.401Z,5.22
2023-03-08T07:39:44.261Z,5.27
2023-03-08T07:42:14.530Z,5.34
2023-03-08T07:44:51.039Z,5.43
2023-03-08T07:47:23.129Z,5.51
2023-03-08T07:49:53.000Z,5.59
2023-03-08T07:52:29.710Z,5.66
2023-03-08T07:54:58.633Z,5.72
2023-03-08T07:57:27.952Z,5.77
2023-03-08T07:59:57.347Z,5.84
2023-03-08T08:02:28.166Z,5.90
2023-03-08T08:05:04.402Z,5.92
2023-03-08T08:07:34.536Z,5.93
2023-03-08T08:10:08.316Z,5.97
2023-03-08T08:12:40.717Z,5.99
2023-03-08T08:15:12.044Z,6.04
2023-03-08T08:17:42.790Z,6.09
2023-03-08T08:20:23.109Z,6.14
2023-03-08T08:22:54.464Z,6.23
2023-03-08T08:25:25.796Z,6.36
2023-03-08T08:27:57.058Z,6.47
2023-03-08T08:30:30.473Z,6.55
2023-03-08T08:33:07.110Z,6.59
2023-03-08T08:35:43.326Z,6.65
2023-03-08T08:38:10.012Z,6.71
2023-03-08T08:40:42.760Z,6.76
2023-03-08T08:43:14.195Z,6.79
2023-03-08T08:45:53.086Z,6.84
2023-03-08T08:48:26.083Z,6.85
2023-03-08T08:50:58.611Z,6.90
2023-03-08T08:53:32.565Z,6.92
2023-03-08T08:56:26.630Z,6.91
2023-03-08T08:58:50.520Z,6.91
2023-03-08T09:01:24.132Z,6.92
2023-03-08T09:03:54.693Z,6.95
2023-03-08T09:06:25.358Z,6.99
2023-03-08T09:08:58.878Z,7.06
2023-03-08T09:11:30.308Z,7.11
2023-03-08T09:14:00.455Z,7.18
2023-03-08T09:16:32.457Z,7.22
2023-03-08T09:19:03.899Z,7.29
2023-03-08T09:21:34.753Z,7.37
2023-03-08T09:24:06.586Z,7.44
2023-03-08T09:26:35.940Z,7.51
2023-03-08T09:29:05.313Z,7.56
2023-03-08T09:31:37.049Z,7.58
2023-03-08T09:34:08.988Z,7.59
2023-03-08T09:36:40.798Z,7.60
2023-03-08T09:39:13.234Z,7.59
2023-03-08T09:41:49.604Z,7.61
2023-03-08T09:44:52.400Z,7.62
2023-03-08T09:47:50.192Z,7.62
2023-03-08T09:50:46.432Z,7.62
2023-03-08T09:53:36.340Z,7.59
2023-03-08T09:56:37.398Z,7.56
2023-03-08T09:59:13.698Z,7.58
2023-03-08T10:01:51.666Z,7.59
2023-03-08T10:05:11.934Z,7.63
2023-03-08T10:07:46.269Z,7.70
2023-03-08T10:10:26.759Z,7.77
2023-03-08T10:13:22.520Z,7.79
2023-03-08T10:15:54.782Z,7.79
2023-03-08T10:18:53.423Z,7.68
2023-03-08T10:21:25.522Z,7.60
2023-03-08T10:24:26.953Z,7.54
2023-03-08T10:27:14.805Z,7.50
2023-03-08T10:29:55.374Z,7.48
2023-03-08T10:32:25.732Z,7.52
2023-03-08T10:35:03.592Z,7.54
2023-03-08T10:37:36.161Z,7.53
2023-03-08T10:40:19.874Z,7.53
2023-03-08T10:43:01.033Z,7.47
2023-03-08T10:45:31.139Z,7.37
2023-03-08T10:48:03.637Z,7.24
2023-03-08T10:50:36.465Z,7.17
2023-03-08T10:53:18.623Z,7.13
2023-03-08T10:55:52.241Z,7.08
2023-03-08T10:58:35.047Z,7.02
2023-03-08T11:01:09.336Z,6.97
2023-03-08T11:03:39.296Z,6.96
2023-03-08T11:06:16.855Z,6.96
2023-03-08T11:08:57.310Z,6.94
2023-03-08T11:11:28.364Z,6.92
2023-03-08T11:14:00.287Z,6.91
2023-03-08T11:16:47.508Z,6.91
2023-03-08T11:19:41.324Z,6.87
2023-03-08T11:22:28.266Z,6.79
2023-03-08T11:25:24.269Z,6.73
2023-03-08T11:28:08.344Z,6.67
2023-03-08T11:30:59.841Z,6.65
2023-03-08T11:34:04.499Z,6.65
2023-03-08T11:36:43.012Z,6.66
2023-03-08T11:39:53.241Z,6.68
2023-03-08T11:42:53.376Z,6.70
2023-03-08T11:45:59.010Z,6.70
2023-03-08T11:49:11.003Z,6.70
2023-03-08T11:52:03.743Z,7.02
2023-03-08T11:54:43.835Z,7.41
2023-03-08T11:57:17.135Z,7.73
2023-03-08T12:00:04.482Z,8.06
2023-03-08T12:02:47.927Z,8.25
2023-03-08T12:05:30.242Z,8.43
2023-03-08T12:08:37.806Z,8.49
2023-03-08T12:11:30.018Z,8.60
2023-03-08T12:14:32.218Z,8.76
2023-03-08T12:17:33.310Z,8.96
2023-03-08T12:20:06.516Z,9.03
2023-03-08T12:22:40.976Z,9.02
2023-03-08T12:25:42.033Z,8.82
2023-03-08T12:28:25.651Z,8.55
2023-03-08T12:31:29.732Z,8.32
2023-03-08T12:34:01.242Z,8.21
2023-03-08T12:36:42.762Z,8.12
2023-03-08T12:39:33.816Z,8.09
2023-03-08T12:42:17.487Z,8.07
2023-03-08T12:44:46.565Z,8.08
2023-03-08T12:47:22.202Z,8.10
2023-03-08T12:49:56.246Z,8.08
2023-03-08T12:52:34.183Z,8.07
2023-03-08T12:57:54.085Z,8.18
2023-03-08T13:00:35.131Z,8.18
2023-03-08T13:03:18.370Z,8.23
2023-03-08T13:05:50.330Z,8.22
2023-03-08T13:08:34.434Z,8.21
2023-03-08T13:11:10.729Z,8.22
2023-03-08T13:14:01.589Z,8.23
2023-03-08T13:16:36.576Z,8.26
2023-03-08T13:19:21.095Z,8.28
2023-03-08T13:22:11.635Z,8.26
2023-03-08T13:24:54.825Z,8.27
2023-03-08T13:27:55.170Z,8.28
2023-03-08T13:30:36.455Z,8.26
2023-03-08T13:33:20.636Z,8.28
2023-03-08T13:36:01.326Z,8.30
2023-03-08T13:38:33.430Z,8.32
2023-03-08T13:41:02.959Z,8.33
2023-03-08T13:43:34.132Z,8.33
2023-03-08T13:46:06.262Z,8.32
2023-03-08T13:48:44.661Z,8.33
2023-03-08T13:51:19.020Z,8.33
2023-03-08T13:53:48.057Z,8.37
2023-03-08T13:56:28.404Z,8.38
2023-03-08T13:59:20.461Z,8.41
2023-03-08T14:01:51.621Z,8.42
2023-03-08T14:04:29.170Z,8.43
2023-03-08T14:07:03.438Z,8.43
2023-03-08T14:09:35.740Z,8.42
2023-03-08T14:12:07.657Z,8.44
2023-03-08T14:14:40.497Z,8.49
2023-03-08T14:17:26.902Z,8.54
2023-03-08T14:19:59.411Z,8.56
2023-03-08T14:22:39.254Z,8.57
2023-03-08T14:25:03.579Z,8.54
2023-03-08T14:27:41.438Z,8.50
2023-03-08T14:30:20.770Z,8.45
2023-03-08T14:33:08.226Z,8.43
2023-03-08T14:35:45.268Z,8.40
2023-03-08T14:38:34.194Z,8.38
2023-03-08T14:41:10.954Z,8.36
2023-03-08T14:43:40.177Z,8.32
2023-03-08T14:46:12.965Z,8.26
2023-03-08T14:48:43.884Z,8.23
2023-03-08T14:51:23.863Z,8.20
2023-03-08T14:54:02.096Z,8.18
2023-03-08T14:56:32.643Z,8.17
2023-03-08T14:59:04.927Z,8.18
2023-03-08T15:01:37.084Z,8.18
2023-03-08T15:04:25.657Z,8.16
2023-03-08T15:07:00.731Z,8.14
2023-03-08T15:09:32.158Z,8.11
2023-03-08T15:12:01.521Z,8.07
2023-03-08T15:14:32.350Z,8.03
2023-03-08T15:17:03.180Z,8.02
2023-03-08T15:19:33.550Z,8.00
2023-03-08T15:22:17.695Z,7.99
2023-03-08T15:24:55.729Z,7.98
2023-03-08T15:27:26.595Z,7.96
2023-03-08T15:29:57.708Z,7.92
2023-03-08T15:32:28.389Z,7.89
2023-03-08T15:34:57.745Z,7.86
2023-03-08T15:37:27.045Z,7.83
2023-03-08T15:39:56.612Z,7.82
2023-03-08T15:42:32.032Z,7.78
2023-03-08T15:45:01.821Z,7.77
2023-03-08T15:47:31.458Z,7.75
2023-03-08T15:50:02.017Z,7.73
2023-03-08T15:52:33.108Z,7.70
2023-03-08T15:55:03.731Z,7.67
2023-03-08T15:57:34.026Z,7.64
2023-03-08T16:00:06.386Z,7.61
2023-03-08T16:02:37.730Z,7.56
2023-03-08T16:05:10.330Z,7.54
2023-03-08T16:07:43.345Z,7.51
2023-03-08T16:10:15.472Z,7.46
2023-03-08T16:12:51.281Z,7.43
2023-03-08T16:15:22.010Z,7.43
2023-03-08T16:17:54.748Z,7.41
2023-03-08T16:20:25.671Z,7.41
2023-03-08T16:22:56.312Z,7.39
2023-03-08T16:25:27.405Z,7.37
2023-03-08T16:27:58.072Z,7.37
2023-03-08T16:30:27.590Z,7.35
2023-03-08T16:32:59.074Z,7.35
2023-03-08T16:35:28.806Z,7.34
2023-03-08T16:38:00.754Z,7.31
2023-03-08T16:40:33.918Z,7.31
2023-03-08T16:43:04.247Z,7.29
2023-03-08T16:45:33.380Z,7.28
2023-03-08T16:48:02.853Z,7.27
2023-03-08T16:50:33.929Z,7.25
2023-03-08T16:53:03.906Z,7.24
2023-03-08T16:55:36.644Z,7.21
2023-03-08T16:58:06.559Z,7.19
2023-03-08T17:00:38.031Z,7.13
2023-03-08T17:03:08.472Z,7.10
2023-03-08T17:05:44.352Z,7.06
2023-03-08T17:08:13.814Z,7.02
2023-03-08T17:10:45.655Z,6.99
2023-03-08T17:13:16.549Z,6.95
2023-03-08T17:15:47.539Z,6.91
2023-03-08T17:18:18.122Z,6.88
2023-03-08T17:20:47.272Z,6.85
2023-03-08T17:23:18.497Z,6.82
2023-03-08T17:25:47.926Z,6.77
2023-03-08T17:28:17.022Z,6.77
2023-03-08T17:30:45.833Z,6.73
2023-03-08T17:33:16.469Z,6.70
2023-03-08T17:35:47.636Z,6.65
2023-03-08T17:38:18.553Z,6.60
2023-03-08T17:40:48.167Z,6.54
2023-03-08T17:43:19.872Z,6.48
2023-03-08T17:46:05.387Z,6.44
2023-03-08T17:48:36.527Z,6.36
2023-03-08T17:51:10.825Z,6.32
2023-03-08T17:53:41.871Z,6.28
2023-03-08T17:56:21.538Z,6.25
2023-03-08T17:58:53.117Z,6.24
2023-03-08T18:01:25.636Z,6.20
2023-03-08T18:03:54.918Z,6.17
2023-03-08T18:06:41.086Z,6.06
2023-03-08T18:09:15.210Z,5.94
2023-03-08T18:11:47.618Z,5.82
2023-03-08T18:14:16.910Z,5.76
2023-03-08T18:16:46.660Z,5.72
2023-03-08T18:19:17.311Z,5.67
2023-03-08T18:21:49.857Z,5.62
2023-03-08T18:24:18.516Z,5.55
2023-03-08T18:26:48.209Z,5.47
2023-03-08T18:29:17.882Z,5.38
2023-03-08T18:31:47.047Z,5.33
2023-03-08T18:34:17.040Z,5.29
2023-03-08T18:36:46.705Z,5.27
2023-03-08T18:39:17.909Z,5.23
2023-03-08T18:41:47.172Z,5.20
2023-03-08T18:44:17.398Z,5.17
2023-03-08T18:46:47.836Z,5.13
2023-03-08T18:49:17.109Z,5.10
2023-03-08T18:51:47.365Z,5.08
2023-03-08T18:54:20.733Z,5.01
2023-03-08T18:56:52.570Z,4.95
2023-03-08T18:59:22.670Z,4.90
2023-03-08T19:01:57.378Z,4.89
2023-03-08T19:04:28.173Z,4.90
2023-03-08T19:06:57.783Z,4.90
2023-03-08T19:09:30.324Z,4.94
2023-03-08T19:11:59.922Z,4.93
2023-03-08T19:14:30.644Z,4.89
2023-03-08T19:17:02.483Z,4.76
2023-03-08T19:19:31.405Z,4.67
2023-03-08T19:22:00.381Z,4.58
2023-03-08T19:24:35.290Z,4.46
2023-03-08T19:27:06.352Z,4.39
2023-03-08T19:29:36.357Z,4.32
2023-03-08T19:32:07.011Z,4.23
2023-03-08T19:34:41.121Z,4.13
2023-03-08T19:37:12.991Z,4.11
2023-03-08T19:39:43.612Z,4.10
2023-03-08T19:42:16.113Z,4.06
2023-03-08T19:44:51.731Z,4.02
2023-03-08T19:47:24.193Z,4.01
2023-03-08T19:49:55.149Z,3.97
2023-03-08T19:52:24.646Z,3.90
2023-03-08T19:54:55.568Z,3.82
2023-03-08T19:57:25.721Z,3.79
2023-03-08T19:59:57.670Z,3.72
2023-03-08T20:02:27.311Z,3.67
2023-03-08T20:04:56.692Z,3.62
2023-03-08T20:07:26.327Z,3.61
2023-03-08T20:09:58.844Z,3.61
2023-03-08T20:12:31.074Z,3.60
2023-03-08T20:15:00.748Z,3.53
2023-03-08T20:17:32.006Z,3.47
2023-03-08T20:20:02.238Z,3.43
2023-03-08T20:22:33.212Z,3.37
2023-03-08T20:25:04.821Z,3.32
2023-03-08T20:27:40.339Z,3.26
2023-03-08T20:30:14.985Z,3.22
2023-03-08T20:32:46.284Z,3.20
2023-03-08T20:35:16.137Z,3.15
2023-03-08T20:37:47.804Z,3.15
2023-03-08T20:40:20.302Z,3.14
2023-03-08T20:42:52.330Z,3.10
2023-03-08T20:45:23.631Z,3.08
2023-03-08T20:47:54.825Z,3.08
2023-03-08T20:50:25.913Z,3.07
2023-03-08T20:52:55.525Z,3.04
2023-03-08T20:55:24.432Z,2.95
2023-03-08T20:57:55.031Z,2.86
2023-03-08T21:00:26.101Z,2.83
2023-03-08T21:02:56.029Z,2.81
2023-03-08T21:05:24.872Z,2.82
2023-03-08T21:07:57.052Z,2.76
2023-03-08T21:10:34.043Z,2.74
2023-03-08T21:13:06.399Z,2.71
2023-03-08T21:15:36.251Z,2.72
2023-03-08T21:18:14.069Z,2.68
2023-03-08T21:20:44.399Z,2.67
2023-03-08T21:23:15.969Z,2.67
2023-03-08T21:25:44.791Z,2.66
2023-03-08T21:28:15.530Z,2.63
2023-03-08T21:30:47.543Z,2.63
2023-03-08T21:33:18.462Z,2.64
2023-03-08T21:35:49.187Z,2.62
2023-03-08T21:38:18.876Z,2.61
2023-03-08T21:40:48.315Z,2.57
2023-03-08T21:43:19.034Z,2.53
2023-03-08T21:45:48.878Z,2.50
2023-03-08T21:48:19.681Z,2.46
2023-03-08T21:50:52.252Z,2.39
2023-03-08T21:53:22.785Z,2.34
2023-03-08T21:55:52.918Z,2.30
2023-03-08T21:58:23.848Z,2.28
2023-03-08T22:00:54.068Z,2.30
2023-03-08T22:03:25.669Z,2.31
2023-03-08T22:05:54.761Z,2.32
2023-03-08T22:08:24.967Z,2.31
2023-03-08T22:10:56.033Z,2.28
2023-03-08T22:13:26.486Z,2.25
2023-03-08T22:15:55.549Z,2.23
2023-03-08T22:18:26.976Z,2.20
2023-03-08T22:20:56.962Z,2.17
2023-03-08T22:23:26.792Z,2.17
2023-03-08T22:25:55.679Z,2.16
2023-03-08T22:28:27.586Z,2.19
2023-03-08T22:30:57.740Z,2.20
2023-03-08T22:33:27.751Z,2.22
2023-03-08T22:35:57.674Z,2.23
2023-03-08T22:38:27.200Z,2.25
2023-03-08T22:40:56.792Z,2.26
2023-03-08T22:43:27.672Z,2.25
2023-03-08T22:46:09.030Z,2.27
2023-03-08T22:48:40.286Z,2.28
2023-03-08T22:51:11.473Z,2.31
2023-03-08T22:53:42.224Z,2.36
2023-03-08T22:56:25.801Z,2.39
2023-03-08T22:58:54.926Z,2.41
2023-03-08T23:01:25.148Z,2.43
2023-03-08T23:03:56.580Z,2.44
2023-03-08T23:11:04.165Z,2.48
2023-03-08T23:13:34.735Z,2.49
2023-03-08T23:20:49.243Z,2.49
2023-03-08T23:23:19.003Z,2.48
2023-03-08T23:25:48.901Z,2.45
2023-03-08T23:28:19.348Z,2.47
2023-03-08T23:30:51.496Z,2.50
2023-03-08T23:33:21.774Z,2.51
2023-03-08T23:35:52.063Z,2.51
2023-03-08T23:38:21.843Z,2.52
2023-03-08T23:40:50.940Z,2.50
2023-03-08T23:43:21.459Z,2.48
2023-03-08T23:45:51.897Z,2.45
2023-03-08T23:48:22.686Z,2.43
2023-03-08T23:50:52.297Z,2.43
2023-03-08T23:53:21.316Z,2.45
2023-03-08T23:55:50.518Z,2.46
2023-03-08T23:58:20.118Z,2.49
